createdAt,value
2016-04-13T00:00:36.738Z,0
2016-04-13T00:01:19.691Z,0
2016-04-13T00:02:02.631Z,0
2016-04-13T00:02:45.587Z,0
2016-04-13T00:03:28.558Z,0
2016-04-13T00:04:11.511Z,0
2016-04-13T00:04:54.452Z,0
2016-04-13T00:05:37.438Z,0
2016-04-13T00:06:20.391Z,0
2016-04-13T00:07:03.363Z,0
2016-04-13T00:07:46.303Z,0
2016-04-13T00:08:29.264Z,0
2016-04-13T00:09:12.201Z,0
2016-04-13T00:09:55.173Z,0
2016-04-13T00:10:38.128Z,0
2016-04-13T00:11:21.066Z,0
2016-04-13T00:12:04.022Z,0
2016-04-13T00:12:46.962Z,0
2016-04-13T00:13:29.917Z,0
2016-04-13T00:14:12.870Z,0
2016-04-13T00:14:55.811Z,0
2016-04-13T00:15:38.783Z,0
2016-04-13T00:16:21.722Z,0
2016-04-13T00:17:04.675Z,0
2016-04-13T00:17:47.631Z,0
2016-04-13T00:18:30.588Z,0
2016-04-13T00:19:13.525Z,0
2016-04-13T00:19:56.480Z,0
2016-04-13T00:20:40.594Z,0
2016-04-13T00:21:23.581Z,0
2016-04-13T00:22:06.534Z,0
2016-04-13T00:22:49.473Z,0
2016-04-13T00:23:32.445Z,0
2016-04-13T00:24:15.383Z,0
2016-04-13T00:24:58.385Z,0
2016-04-13T00:25:41.341Z,0
2016-04-13T00:26:24.313Z,0
2016-04-13T00:27:07.266Z,0
2016-04-13T00:27:50.237Z,0
2016-04-13T00:28:33.177Z,0
2016-04-13T00:29:16.130Z,0
2016-04-13T00:29:59.133Z,0
2016-04-13T00:30:42.104Z,0
2016-04-13T00:31:25.076Z,0
2016-04-13T00:32:08.029Z,0
2016-04-13T00:32:50.969Z,0
2016-04-13T00:33:33.940Z,0
2016-04-13T00:34:16.878Z,0
2016-04-13T00:34:59.834Z,0
2016-04-13T00:35:42.774Z,0
2016-04-13T00:36:25.761Z,0
2016-04-13T00:37:08.714Z,0
2016-04-13T00:37:51.685Z,0
2016-04-13T00:38:34.469Z,0
2016-04-13T00:39:17.422Z,0
2016-04-13T00:40:00.362Z,0
2016-04-13T00:40:43.319Z,0
2016-04-13T00:41:26.243Z,0
2016-04-13T00:42:09.196Z,0
2016-04-13T00:42:52.215Z,0
2016-04-13T00:43:35.155Z,0
2016-04-13T00:44:18.108Z,0
2016-04-13T00:45:01.064Z,0
2016-04-13T00:45:44.020Z,0
2016-04-13T00:46:26.976Z,0
2016-04-13T00:47:09.914Z,0
2016-04-13T00:47:52.884Z,0
2016-04-13T00:48:35.840Z,0
2016-04-13T00:49:18.794Z,0
2016-04-13T00:50:01.734Z,0
2016-04-13T00:50:44.705Z,0
2016-04-13T00:51:27.660Z,0
2016-04-13T00:52:10.597Z,0
2016-04-13T00:52:53.569Z,0
2016-04-13T00:53:36.525Z,0
2016-04-13T00:54:19.541Z,0
2016-04-13T00:55:02.481Z,0
2016-04-13T00:55:45.437Z,0
2016-04-13T00:56:28.408Z,0
2016-04-13T00:57:11.346Z,0
2016-04-13T00:57:54.318Z,0
2016-04-13T00:58:37.288Z,0
2016-04-13T00:59:20.241Z,0
2016-04-13T01:00:03.198Z,0
2016-04-13T01:00:46.122Z,0
2016-04-13T01:01:28.999Z,0
2016-04-13T01:02:11.890Z,0
2016-04-13T01:02:54.768Z,0
2016-04-13T01:03:37.693Z,0
2016-04-13T01:04:20.584Z,0
2016-04-13T01:05:03.476Z,0
2016-04-13T01:05:46.370Z,0
2016-04-13T01:06:29.263Z,0
2016-04-13T01:07:12.138Z,0
2016-04-13T01:07:55.032Z,0
2016-04-13T01:08:37.926Z,0
2016-04-13T01:09:20.801Z,0
2016-04-13T01:10:03.679Z,0
2016-04-13T01:10:46.571Z,0
2016-04-13T01:11:29.448Z,0
2016-04-13T01:12:12.355Z,0
2016-04-13T01:12:55.237Z,0
2016-04-13T01:13:38.114Z,0
2016-04-13T01:14:20.974Z,0
2016-04-13T01:15:03.866Z,0
2016-04-13T01:15:46.729Z,0
2016-04-13T01:16:29.622Z,0
2016-04-13T01:17:12.497Z,0
2016-04-13T01:17:55.390Z,0
2016-04-13T01:18:38.268Z,0
2016-04-13T01:19:21.143Z,0
2016-04-13T01:20:04.021Z,0
2016-04-13T01:20:46.915Z,0
2016-04-13T01:21:29.824Z,0
2016-04-13T01:22:11.906Z,0
2016-04-13T01:22:54.783Z,0
2016-04-13T01:23:37.708Z,0
2016-04-13T01:24:20.614Z,0
2016-04-13T01:25:03.492Z,0
2016-04-13T01:25:46.400Z,0
2016-04-13T01:26:29.278Z,0
2016-04-13T01:27:12.185Z,0
2016-04-13T01:27:55.063Z,0
2016-04-13T01:28:37.955Z,0
2016-04-13T01:29:20.861Z,0
2016-04-13T01:30:03.739Z,0
2016-04-13T01:30:46.602Z,0
2016-04-13T01:31:29.494Z,0
2016-04-13T01:32:12.385Z,0
2016-04-13T01:32:55.294Z,0
2016-04-13T01:33:38.157Z,0
2016-04-13T01:34:21.110Z,0
2016-04-13T01:35:03.987Z,0
2016-04-13T01:35:46.880Z,0
2016-04-13T01:36:29.601Z,0
2016-04-13T01:37:12.492Z,0
2016-04-13T01:37:55.370Z,0
2016-04-13T01:38:38.263Z,0
2016-04-13T01:39:21.123Z,0
2016-04-13T01:40:04.001Z,0
2016-04-13T01:40:46.863Z,0
2016-04-13T01:41:29.756Z,0
2016-04-13T01:42:11.850Z,0
2016-04-13T01:42:54.743Z,0
2016-04-13T01:43:37.621Z,0
2016-04-13T01:44:20.496Z,0
2016-04-13T01:45:03.218Z,0
2016-04-13T01:45:46.095Z,0
2016-04-13T01:46:28.832Z,0
2016-04-13T01:47:11.770Z,0
2016-04-13T01:47:54.648Z,0
2016-04-13T01:48:37.540Z,0
2016-04-13T01:49:20.431Z,0
2016-04-13T01:50:03.309Z,0
2016-04-13T01:50:46.186Z,0
2016-04-13T01:51:29.142Z,0
2016-04-13T01:52:12.017Z,0
2016-04-13T01:52:54.911Z,0
2016-04-13T01:53:37.819Z,0
2016-04-13T01:54:20.522Z,0
2016-04-13T01:55:03.427Z,0
2016-04-13T01:55:46.378Z,0
2016-04-13T01:56:29.299Z,0
2016-04-13T01:57:12.174Z,0
2016-04-13T01:57:55.096Z,0
2016-04-13T01:58:37.874Z,0
2016-04-13T01:59:20.828Z,0
2016-04-13T02:00:03.774Z,0
2016-04-13T02:00:46.697Z,0
2016-04-13T02:01:29.607Z,0
2016-04-13T02:02:12.450Z,0
2016-04-13T02:02:55.359Z,0
2016-04-13T02:03:38.251Z,0
2016-04-13T02:04:21.126Z,0
2016-04-13T02:05:04.017Z,0
2016-04-13T02:05:46.901Z,0
2016-04-13T02:06:29.767Z,0
2016-04-13T02:07:12.658Z,0
2016-04-13T02:07:55.526Z,0
2016-04-13T02:08:38.425Z,0
2016-04-13T02:09:21.300Z,0
2016-04-13T02:10:04.040Z,0
2016-04-13T02:10:46.905Z,0
2016-04-13T02:11:29.816Z,0
2016-04-13T02:12:12.722Z,0
2016-04-13T02:12:55.601Z,0
2016-04-13T02:13:38.482Z,0
2016-04-13T02:14:21.373Z,0
2016-04-13T02:15:04.251Z,0
2016-04-13T02:15:47.130Z,0
2016-04-13T02:16:30.025Z,0
2016-04-13T02:17:12.884Z,0
2016-04-13T02:17:55.762Z,0
2016-04-13T02:18:38.624Z,0
2016-04-13T02:19:21.515Z,0
2016-04-13T02:20:04.409Z,0
2016-04-13T02:20:47.288Z,0
2016-04-13T02:21:30.212Z,0
2016-04-13T02:22:13.087Z,0
2016-04-13T02:22:55.965Z,0
2016-04-13T02:23:38.859Z,0
2016-04-13T02:24:21.750Z,0
2016-04-13T02:25:04.643Z,0
2016-04-13T02:25:47.506Z,0
2016-04-13T02:26:30.398Z,0
2016-04-13T02:27:13.273Z,0
2016-04-13T02:27:56.167Z,0
2016-04-13T02:28:39.061Z,0
2016-04-13T02:29:21.936Z,0
2016-04-13T02:30:04.814Z,0
2016-04-13T02:30:47.692Z,0
2016-04-13T02:31:30.584Z,0
2016-04-13T02:32:13.459Z,0
2016-04-13T02:32:56.322Z,0
2016-04-13T02:33:39.215Z,0
2016-04-13T02:34:22.090Z,0
2016-04-13T02:35:04.983Z,0
2016-04-13T02:35:47.861Z,0
2016-04-13T02:36:30.817Z,0
2016-04-13T02:37:13.692Z,0
2016-04-13T02:37:56.569Z,0
2016-04-13T02:38:39.431Z,0
2016-04-13T02:39:22.306Z,0
2016-04-13T02:40:05.200Z,0
2016-04-13T02:40:48.093Z,0
2016-04-13T02:41:30.955Z,0
2016-04-13T02:42:13.861Z,0
2016-04-13T02:42:56.755Z,0
2016-04-13T02:43:39.647Z,0
2016-04-13T02:44:22.522Z,0
2016-04-13T02:45:05.399Z,0
2016-04-13T02:45:48.293Z,0
2016-04-13T02:46:31.188Z,0
2016-04-13T02:47:14.063Z,0
2016-04-13T02:47:56.955Z,0
2016-04-13T02:48:39.833Z,0
2016-04-13T02:49:22.724Z,0
2016-04-13T02:50:05.648Z,0
2016-04-13T02:50:48.510Z,0
2016-04-13T02:51:31.451Z,0
2016-04-13T02:52:13.544Z,0
2016-04-13T02:52:56.421Z,0
2016-04-13T02:53:39.315Z,0
2016-04-13T02:54:22.190Z,0
2016-04-13T02:55:05.067Z,0
2016-04-13T02:55:47.976Z,0
2016-04-13T02:56:30.854Z,0
2016-04-13T02:57:13.761Z,0
2016-04-13T02:57:56.622Z,0
2016-04-13T02:58:39.531Z,0
2016-04-13T02:59:22.406Z,0
2016-04-13T03:00:05.300Z,0
2016-04-13T03:00:48.178Z,0
2016-04-13T03:01:31.071Z,0
2016-04-13T03:02:14.009Z,0
2016-04-13T03:02:56.902Z,0
2016-04-13T03:03:39.811Z,0
2016-04-13T03:04:22.717Z,0
2016-04-13T03:05:05.595Z,0
2016-04-13T03:05:48.504Z,0
2016-04-13T03:06:31.413Z,0
2016-04-13T03:07:14.303Z,0
2016-04-13T03:07:57.212Z,0
2016-04-13T03:08:40.105Z,0
2016-04-13T03:09:22.980Z,0
2016-04-13T03:10:05.889Z,0
2016-04-13T03:10:48.767Z,0
2016-04-13T03:11:31.660Z,0
2016-04-13T03:12:14.551Z,0
2016-04-13T03:12:57.444Z,0
2016-04-13T03:13:40.321Z,0
2016-04-13T03:14:23.321Z,0
2016-04-13T03:15:06.216Z,0
2016-04-13T03:15:49.078Z,0
2016-04-13T03:16:31.971Z,0
2016-04-13T03:17:14.861Z,0
2016-04-13T03:17:57.739Z,0
2016-04-13T03:18:40.616Z,0
2016-04-13T03:19:23.491Z,0
2016-04-13T03:20:06.401Z,0
2016-04-13T03:20:49.279Z,0
2016-04-13T03:21:32.204Z,0
2016-04-13T03:22:15.094Z,0
2016-04-13T03:22:57.815Z,0
2016-04-13T03:23:39.911Z,0
2016-04-13T03:24:22.786Z,0
2016-04-13T03:25:05.679Z,0
2016-04-13T03:25:48.573Z,0
2016-04-13T03:26:31.450Z,0
2016-04-13T03:27:14.356Z,0
2016-04-13T03:27:57.250Z,0
2016-04-13T03:28:40.206Z,0
2016-04-13T03:29:23.097Z,0
2016-04-13T03:30:05.975Z,0
2016-04-13T03:30:48.853Z,0
2016-04-13T03:31:31.714Z,0
2016-04-13T03:32:14.589Z,0
2016-04-13T03:32:57.451Z,0
2016-04-13T03:33:40.345Z,0
2016-04-13T03:34:23.220Z,0
2016-04-13T03:35:06.113Z,0
2016-04-13T03:35:49.006Z,0
2016-04-13T03:36:32.056Z,0
2016-04-13T03:37:14.947Z,0
2016-04-13T03:37:57.824Z,0
2016-04-13T03:38:40.686Z,0
2016-04-13T03:39:23.577Z,0
2016-04-13T03:40:06.475Z,0
2016-04-13T03:40:49.368Z,0
2016-04-13T03:41:32.246Z,0
2016-04-13T03:42:15.105Z,0
2016-04-13T03:42:57.967Z,0
2016-04-13T03:43:40.846Z,0
2016-04-13T03:44:23.721Z,0
2016-04-13T03:45:06.613Z,0
2016-04-13T03:45:49.507Z,0
2016-04-13T03:46:32.384Z,0
2016-04-13T03:47:15.243Z,0
2016-04-13T03:47:58.121Z,0
2016-04-13T03:48:40.999Z,0
2016-04-13T03:49:23.874Z,0
2016-04-13T03:50:06.767Z,0
2016-04-13T03:50:49.660Z,0
2016-04-13T03:51:32.445Z,0
2016-04-13T03:52:15.351Z,0
2016-04-13T03:52:58.259Z,0
2016-04-13T03:53:41.200Z,0
2016-04-13T03:54:24.090Z,0
2016-04-13T03:55:06.984Z,0
2016-04-13T03:55:49.862Z,0
2016-04-13T03:56:32.755Z,0
2016-04-13T03:57:15.661Z,0
2016-04-13T03:57:58.554Z,0
2016-04-13T03:58:41.448Z,0
2016-04-13T03:59:24.339Z,0
2016-04-13T04:00:07.248Z,0
2016-04-13T04:00:50.125Z,0
2016-04-13T04:01:33.003Z,0
2016-04-13T04:02:15.894Z,0
2016-04-13T04:02:58.771Z,0
2016-04-13T04:03:41.649Z,0
2016-04-13T04:04:24.524Z,0
2016-04-13T04:05:07.402Z,0
2016-04-13T04:05:50.294Z,0
2016-04-13T04:06:33.125Z,0
2016-04-13T04:07:16.094Z,0
2016-04-13T04:07:58.972Z,0
2016-04-13T04:08:42.975Z,4
2016-04-13T04:09:25.850Z,4
2016-04-13T04:10:08.836Z,4
2016-04-13T04:10:51.839Z,0
2016-04-13T04:11:34.717Z,4
2016-04-13T04:12:17.686Z,4
2016-04-13T04:13:00.674Z,4
2016-04-13T04:13:43.567Z,4
2016-04-13T04:14:26.473Z,4
2016-04-13T04:15:09.397Z,4
2016-04-13T04:15:52.307Z,8
2016-04-13T04:16:35.527Z,4
2016-04-13T04:17:18.434Z,8
2016-04-13T04:18:01.343Z,8
2016-04-13T04:18:44.486Z,12
2016-04-13T04:19:27.393Z,12
2016-04-13T04:20:10.317Z,12
2016-04-13T04:20:53.413Z,12
2016-04-13T04:21:36.306Z,12
2016-04-13T04:22:19.165Z,20
2016-04-13T04:23:02.059Z,20
2016-04-13T04:23:44.953Z,20
2016-04-13T04:24:27.843Z,24
2016-04-13T04:25:10.831Z,28
2016-04-13T04:25:53.754Z,28
2016-04-13T04:26:36.726Z,32
2016-04-13T04:27:19.679Z,36
2016-04-13T04:28:02.557Z,44
2016-04-13T04:28:45.748Z,48
2016-04-13T04:29:28.607Z,52
2016-04-13T04:30:11.484Z,60
2016-04-13T04:30:54.378Z,64
2016-04-13T04:31:37.271Z,72
2016-04-13T04:32:20.178Z,84
2016-04-13T04:33:03.056Z,92
2016-04-13T04:33:45.933Z,104
2016-04-13T04:34:28.792Z,116
2016-04-13T04:35:11.670Z,128
2016-04-13T04:35:54.563Z,144
2016-04-13T04:36:37.550Z,160
2016-04-13T04:37:20.706Z,172
2016-04-13T04:38:06.131Z,188
2016-04-13T04:38:48.680Z,204
2016-04-13T04:39:32.183Z,216
2016-04-13T04:40:15.308Z,232
2016-04-13T04:40:57.967Z,252
2016-04-13T04:41:40.908Z,268
2016-04-13T04:42:23.955Z,296
2016-04-13T04:43:06.848Z,316
2016-04-13T04:43:49.835Z,344
2016-04-13T04:44:32.822Z,368
2016-04-13T04:45:15.806Z,388
2016-04-13T04:45:58.730Z,416
2016-04-13T04:46:41.718Z,440
2016-04-13T04:47:24.577Z,460
2016-04-13T04:48:07.876Z,488
2016-04-13T04:48:50.801Z,516
2016-04-13T04:49:33.710Z,548
2016-04-13T04:50:16.616Z,580
2016-04-13T04:50:59.494Z,612
2016-04-13T04:51:42.449Z,640
2016-04-13T04:52:25.449Z,680
2016-04-13T04:53:08.343Z,716
2016-04-13T04:53:51.220Z,752
2016-04-13T04:54:34.098Z,792
2016-04-13T04:55:16.973Z,836
2016-04-13T04:55:59.851Z,880
2016-04-13T04:56:42.760Z,920
2016-04-13T04:57:25.620Z,964
2016-04-13T04:58:08.623Z,1012
2016-04-13T04:58:51.548Z,1056
2016-04-13T04:59:34.706Z,1104
2016-04-13T05:00:17.721Z,1144
2016-04-13T05:01:00.740Z,1192
2016-04-13T05:01:44.023Z,1236
2016-04-13T05:02:26.961Z,1284
2016-04-13T05:03:09.761Z,1328
2016-04-13T05:03:52.686Z,1376
2016-04-13T05:04:35.953Z,1420
2016-04-13T05:05:18.844Z,1464
2016-04-13T05:06:01.909Z,1508
2016-04-13T05:06:45.069Z,1556
2016-04-13T05:07:28.053Z,1600
2016-04-13T05:08:11.024Z,1652
2016-04-13T05:08:53.917Z,1700
2016-04-13T05:09:36.795Z,1752
2016-04-13T05:10:19.717Z,1804
2016-04-13T05:11:02.658Z,1860
2016-04-13T05:11:45.644Z,1924
2016-04-13T05:12:28.613Z,1984
2016-04-13T05:13:11.585Z,2044
2016-04-13T05:13:54.524Z,2104
2016-04-13T05:14:37.308Z,2164
2016-04-13T05:15:20.230Z,2224
2016-04-13T05:16:03.138Z,2288
2016-04-13T05:16:46.126Z,2348
2016-04-13T05:17:29.079Z,2408
2016-04-13T05:18:12.113Z,2476
2016-04-13T05:18:55.476Z,2548
2016-04-13T05:19:38.541Z,2616
2016-04-13T05:20:21.432Z,2680
2016-04-13T05:21:04.324Z,2736
2016-04-13T05:21:47.266Z,2792
2016-04-13T05:22:30.125Z,2840
2016-04-13T05:23:13.001Z,2892
2016-04-13T05:23:55.864Z,2944
2016-04-13T05:24:38.773Z,2996
2016-04-13T05:25:21.663Z,3052
2016-04-13T05:26:04.541Z,3104
2016-04-13T05:26:47.419Z,3152
2016-04-13T05:27:30.279Z,3200
2016-04-13T05:28:13.171Z,3248
2016-04-13T05:28:56.049Z,3284
2016-04-13T05:29:38.959Z,3308
2016-04-13T05:30:21.834Z,3320
2016-04-13T05:31:04.789Z,3312
2016-04-13T05:31:47.667Z,3288
2016-04-13T05:32:30.573Z,3296
2016-04-13T05:33:13.466Z,3368
2016-04-13T05:33:56.345Z,3480
2016-04-13T05:34:39.222Z,3628
2016-04-13T05:35:22.081Z,3756
2016-04-13T05:36:04.975Z,3844
2016-04-13T05:36:47.852Z,3960
2016-04-13T05:37:30.805Z,4124
2016-04-13T05:38:13.730Z,4260
2016-04-13T05:38:56.638Z,4356
2016-04-13T05:39:39.501Z,4416
2016-04-13T05:40:22.392Z,4460
2016-04-13T05:41:05.269Z,4496
2016-04-13T05:41:48.163Z,4516
2016-04-13T05:42:31.053Z,4524
2016-04-13T05:43:13.930Z,4516
2016-04-13T05:43:56.824Z,4464
2016-04-13T05:44:39.717Z,4388
2016-04-13T05:45:22.592Z,4356
2016-04-13T05:46:05.485Z,4288
2016-04-13T05:46:48.363Z,4184
2016-04-13T05:47:31.301Z,4140
2016-04-13T05:48:14.194Z,4156
2016-04-13T05:48:57.134Z,4196
2016-04-13T05:49:40.012Z,4240
2016-04-13T05:50:22.902Z,4264
2016-04-13T05:51:05.812Z,4312
2016-04-13T05:51:48.704Z,4376
2016-04-13T05:52:31.579Z,4424
2016-04-13T05:53:14.488Z,4472
2016-04-13T05:53:57.367Z,4516
2016-04-13T05:54:40.260Z,4520
2016-04-13T05:55:23.135Z,4548
2016-04-13T05:56:05.996Z,4564
2016-04-13T05:56:48.906Z,4568
2016-04-13T05:57:31.781Z,4564
2016-04-13T05:58:14.690Z,4552
2016-04-13T05:58:57.584Z,4548
2016-04-13T05:59:40.492Z,4588
2016-04-13T06:00:23.367Z,4600
2016-04-13T06:01:06.260Z,4604
2016-04-13T06:01:49.154Z,4616
2016-04-13T06:02:32.045Z,4680
2016-04-13T06:03:14.937Z,4700
2016-04-13T06:03:57.800Z,4700
2016-04-13T06:04:40.692Z,4704
2016-04-13T06:05:23.630Z,4732
2016-04-13T06:06:06.353Z,4776
2016-04-13T06:06:49.245Z,4812
2016-04-13T06:07:32.167Z,4836
2016-04-13T06:08:15.061Z,4840
2016-04-13T06:08:57.954Z,4900
2016-04-13T06:09:40.863Z,4884
2016-04-13T06:10:23.738Z,4948
2016-04-13T06:11:06.647Z,4972
2016-04-13T06:11:49.540Z,4952
2016-04-13T06:12:32.415Z,4972
2016-04-13T06:13:15.309Z,4980
2016-04-13T06:13:58.217Z,4940
2016-04-13T06:14:41.126Z,4948
2016-04-13T06:15:24.016Z,4872
2016-04-13T06:16:06.910Z,4884
2016-04-13T06:16:49.803Z,4844
2016-04-13T06:17:32.694Z,4808
2016-04-13T06:18:15.571Z,4808
2016-04-13T06:18:58.480Z,4804
2016-04-13T06:19:41.343Z,4836
2016-04-13T06:20:24.233Z,4888
2016-04-13T06:21:07.143Z,5008
2016-04-13T06:21:50.004Z,5152
2016-04-13T06:22:32.926Z,5276
2016-04-13T06:23:15.867Z,5372
2016-04-13T06:23:58.776Z,5468
2016-04-13T06:24:41.668Z,5472
2016-04-13T07:48:00.454Z,19584
2016-04-13T07:48:43.347Z,20416
2016-04-13T07:49:26.222Z,21152
2016-04-13T07:50:09.100Z,20960
2016-04-13T07:50:51.978Z,20832
2016-04-13T07:51:34.869Z,22880
2016-04-13T07:52:18.044Z,22048
2016-04-13T07:53:00.952Z,23104
2016-04-13T07:53:43.814Z,21888
2016-04-13T07:54:26.721Z,22272
2016-04-13T07:55:09.457Z,23104
2016-04-13T07:55:52.335Z,21472
2016-04-13T07:56:35.226Z,22944
2016-04-13T07:57:18.119Z,20832
2016-04-13T07:58:01.028Z,18944
2016-04-13T07:58:43.907Z,18144
2016-04-13T07:59:26.797Z,17504
2016-04-13T08:00:09.674Z,17824
2016-04-13T08:00:52.583Z,17376
2016-04-13T08:01:35.474Z,19296
2016-04-13T08:02:18.383Z,25248
2016-04-13T08:03:01.292Z,26656
2016-04-13T08:03:44.170Z,27616
2016-04-13T08:04:27.060Z,28768
2016-04-13T08:05:09.937Z,30112
2016-04-13T08:05:52.846Z,27968
2016-04-13T08:06:35.581Z,30784
2016-04-13T08:07:18.693Z,26176
2016-04-13T08:08:01.586Z,28544
2016-04-13T08:08:44.500Z,27232
2016-04-13T08:09:27.391Z,26208
2016-04-13T08:10:10.299Z,25248
2016-04-13T08:10:53.177Z,29792
2016-04-13T08:11:36.083Z,30208
2016-04-13T08:12:18.961Z,30080
2016-04-13T08:13:01.697Z,27968
2016-04-13T08:13:44.576Z,28576
2016-04-13T08:14:27.467Z,21856
2016-04-13T08:15:10.344Z,19584
2016-04-13T08:15:53.253Z,15252
2016-04-13T08:16:36.144Z,15396
2016-04-13T08:17:19.038Z,21248
2016-04-13T08:18:01.930Z,16736
2016-04-13T08:18:44.824Z,19552
2016-04-13T08:19:27.714Z,28928
2016-04-13T08:20:10.608Z,32256
2016-04-13T08:20:53.501Z,25056
2016-04-13T08:21:36.391Z,21728
2016-04-13T08:22:19.316Z,19168
2016-04-13T08:23:02.116Z,18816
2016-04-13T08:23:44.853Z,18464
2016-04-13T08:24:27.603Z,18048
2016-04-13T08:25:10.497Z,18080
2016-04-13T08:25:53.390Z,18368
2016-04-13T08:26:36.280Z,18336
2016-04-13T08:27:19.190Z,19840
2016-04-13T08:28:02.082Z,33184
2016-04-13T08:28:44.976Z,26624
2016-04-13T08:29:27.929Z,35456
2016-04-13T08:30:10.854Z,40384
2016-04-13T08:30:53.731Z,29920
2016-04-13T08:31:36.637Z,28352
2016-04-13T08:32:19.546Z,41152
2016-04-13T08:33:02.455Z,49952
2016-04-13T08:33:45.333Z,50784
2016-04-13T08:34:28.208Z,45760
2016-04-13T08:35:11.101Z,43296
2016-04-13T08:35:53.994Z,33728
2016-04-13T08:36:36.888Z,34496
2016-04-13T08:37:19.717Z,46848
2016-04-13T08:38:02.672Z,40384
2016-04-13T08:38:45.565Z,22304
2016-04-13T08:39:28.440Z,20832
2016-04-13T08:40:11.349Z,30048
2016-04-13T08:40:54.242Z,40032
2016-04-13T08:41:37.136Z,42688
2016-04-13T08:42:20.026Z,40896
2016-04-13T08:43:02.935Z,41120
2016-04-13T08:43:45.844Z,40128
2016-04-13T08:44:28.735Z,39104
2016-04-13T08:45:11.627Z,38112
2016-04-13T08:45:54.505Z,38976
2016-04-13T08:46:37.414Z,39264
2016-04-13T08:47:20.336Z,40192
2016-04-13T08:48:03.246Z,32064
2016-04-13T08:48:46.139Z,37184
2016-04-13T08:49:28.874Z,33408
2016-04-13T08:50:11.767Z,30976
2016-04-13T08:50:54.691Z,20992
2016-04-13T08:51:37.585Z,14816
2016-04-13T08:52:20.397Z,13908
2016-04-13T08:53:03.321Z,13420
2016-04-13T08:53:46.215Z,13152
2016-04-13T08:54:29.121Z,13340
2016-04-13T08:55:12.015Z,14144
2016-04-13T08:55:54.924Z,22432
2016-04-13T08:56:37.833Z,27200
2016-04-13T08:57:20.739Z,27872
2016-04-13T08:58:03.616Z,25536
2016-04-13T08:58:46.526Z,26144
2016-04-13T08:59:29.432Z,26720
2016-04-13T09:00:12.324Z,25760
2016-04-13T09:00:55.234Z,26400
2016-04-13T09:01:38.112Z,24064
2016-04-13T09:02:21.018Z,24224
2016-04-13T09:03:03.911Z,19424
2016-04-13T09:03:46.820Z,16352
2016-04-13T09:04:29.710Z,22784
2016-04-13T09:05:12.619Z,24832
2016-04-13T09:05:55.512Z,24928
2016-04-13T09:06:38.406Z,23168
2016-04-13T09:07:21.547Z,22528
2016-04-13T09:08:04.346Z,21472
2016-04-13T09:08:47.270Z,20608
2016-04-13T09:09:30.161Z,20960
2016-04-13T09:10:13.039Z,20256
2016-04-13T09:10:55.917Z,17856
2016-04-13T09:11:38.841Z,16608
2016-04-13T09:12:21.747Z,14884
2016-04-13T09:13:04.688Z,14224
2016-04-13T09:13:47.581Z,13560
2016-04-13T09:14:30.472Z,12932
2016-04-13T09:15:13.350Z,12624
2016-04-13T09:15:56.242Z,12336
2016-04-13T09:16:39.167Z,12040
2016-04-13T09:17:22.058Z,11736
2016-04-13T09:18:04.951Z,11468
2016-04-13T09:18:47.829Z,11308
2016-04-13T09:19:30.719Z,11348
2016-04-13T09:20:13.628Z,11620
2016-04-13T09:20:56.522Z,12016
2016-04-13T09:21:39.400Z,13024
2016-04-13T09:22:22.353Z,14756
2016-04-13T09:23:05.293Z,14864
2016-04-13T09:23:48.171Z,15840
2016-04-13T09:24:31.077Z,16512
2016-04-13T09:25:13.813Z,16640
2016-04-13T09:25:56.707Z,14560
2016-04-13T09:26:39.585Z,14008
2016-04-13T09:27:22.476Z,13964
2016-04-13T09:28:05.354Z,14048
2016-04-13T09:28:48.263Z,14140
2016-04-13T09:29:31.153Z,14208
2016-04-13T09:30:14.046Z,14116
2016-04-13T09:30:57.533Z,15416
2016-04-13T09:31:40.426Z,14868
2016-04-13T09:32:23.317Z,13008
2016-04-13T09:33:06.070Z,12620
2016-04-13T09:33:49.119Z,12508
2016-04-13T09:34:32.009Z,12440
2016-04-13T09:35:14.903Z,12432
2016-04-13T09:35:57.812Z,12848
2016-04-13T09:36:40.689Z,13352
2016-04-13T09:37:23.611Z,17696
2016-04-13T09:38:06.521Z,16384
2016-04-13T09:38:49.414Z,15892
2016-04-13T09:39:32.304Z,14976
2016-04-13T09:40:15.198Z,14332
2016-04-13T09:40:58.091Z,14400
2016-04-13T09:41:41.000Z,14968
2016-04-13T09:42:23.891Z,17248
2016-04-13T09:43:06.769Z,15320
2016-04-13T09:43:49.661Z,17696
2016-04-13T09:44:32.536Z,15868
2016-04-13T09:45:15.461Z,15744
2016-04-13T09:45:58.355Z,17440
2016-04-13T09:46:41.247Z,17120
2016-04-13T09:47:24.138Z,15620
2016-04-13T09:48:07.032Z,18784
2016-04-13T09:48:49.925Z,15420
2016-04-13T09:49:32.847Z,15372
2016-04-13T09:50:15.725Z,18112
2016-04-13T09:50:58.603Z,15300
2016-04-13T09:51:41.496Z,16320
2016-04-13T09:52:24.402Z,15332
2016-04-13T09:53:07.186Z,15288
2016-04-13T09:53:50.063Z,14436
2016-04-13T09:54:33.088Z,14424
2016-04-13T09:55:16.416Z,14076
2016-04-13T09:55:59.345Z,13592
2016-04-13T09:56:42.473Z,13668
2016-04-13T09:57:24.879Z,13936
2016-04-13T09:58:07.804Z,14164
2016-04-13T09:58:50.682Z,14128
2016-04-13T09:59:33.588Z,14392
2016-04-13T10:00:16.489Z,14216
2016-04-13T10:00:59.427Z,15036
2016-04-13T10:01:42.383Z,15768
2016-04-13T10:02:25.492Z,16448
